createdAt,value
2018-09-28T00:01:52.608Z,57.26
2018-09-28T00:04:19.228Z,56.05
2018-09-28T00:06:45.876Z,56.82
2018-09-28T00:09:12.541Z,56.25
2018-09-28T00:11:39.177Z,56.32
2018-09-28T00:14:06.564Z,56.24
2018-09-28T00:16:33.276Z,56.33
2018-09-28T00:19:00.696Z,56.70
2018-09-28T00:21:28.429Z,56.73
2018-09-28T00:23:55.068Z,56.80
2018-09-28T00:26:21.760Z,56.28
2018-09-28T00:28:48.412Z,55.96
2018-09-28T00:31:15.978Z,55.60
2018-09-28T00:33:43.609Z,55.65
2018-09-28T00:36:10.373Z,55.82
2018-09-28T00:38:37.265Z,55.76
2018-09-28T00:41:05.893Z,56.12
2018-09-28T00:43:33.494Z,55.82
2018-09-28T00:46:01.094Z,55.57
2018-09-28T00:48:28.633Z,54.94
2018-09-28T00:50:56.106Z,55.93
2018-09-28T00:53:23.677Z,55.89
2018-09-28T00:55:51.284Z,54.90
2018-09-28T00:58:18.985Z,56.39
2018-09-28T01:00:45.616Z,55.76
2018-09-28T01:03:13.133Z,56.18
2018-09-28T01:05:40.644Z,56.14
2018-09-28T01:08:08.321Z,56.66
2018-09-28T01:10:36.232Z,55.21
2018-09-28T01:13:02.905Z,54.88
2018-09-28T01:15:29.589Z,55.38
2018-09-28T01:17:57.308Z,56.02
2018-09-28T01:20:24.925Z,55.72
2018-09-28T01:22:52.491Z,55.40
2018-09-28T01:25:19.921Z,55.45
2018-09-28T01:27:47.560Z,56.13
2018-09-28T01:30:14.227Z,55.53
2018-09-28T01:32:40.862Z,56.39
2018-09-28T01:35:07.564Z,56.13
2018-09-28T01:37:36.564Z,55.20
2018-09-28T01:40:03.244Z,56.05
2018-09-28T01:42:29.909Z,56.27
2018-09-28T01:44:57.664Z,55.03
2018-09-28T01:47:25.249Z,55.05
2018-09-28T01:49:52.753Z,55.03
2018-09-28T01:52:20.323Z,54.62
2018-09-28T01:54:47.973Z,56.01
2018-09-28T01:57:15.593Z,55.70
2018-09-28T01:59:43.300Z,55.41
2018-09-28T02:02:10.917Z,54.76
2018-09-28T02:04:38.489Z,54.64
2018-09-28T02:07:06.525Z,55.20
2018-09-28T02:09:34.184Z,55.34
2018-09-28T02:12:01.633Z,54.79
2018-09-28T02:14:29.088Z,54.62
2018-09-28T02:16:57.713Z,54.44
2018-09-28T02:19:24.367Z,54.83
2018-09-28T02:21:51.008Z,54.50
2018-09-28T02:24:17.640Z,54.32
2018-09-28T02:26:45.299Z,54.52
2018-09-28T02:29:12.929Z,53.90
2018-09-28T02:31:40.544Z,55.02
2018-09-28T02:34:08.150Z,54.13
2018-09-28T02:36:37.214Z,55.07
2018-09-28T02:39:06.235Z,53.85
2018-09-28T02:41:33.840Z,53.34
2018-09-28T02:44:01.409Z,53.62
2018-09-28T02:46:29.929Z,53.47
2018-09-28T02:48:58.529Z,54.86
2018-09-28T02:51:26.116Z,54.89
2018-09-28T02:53:53.748Z,54.08
2018-09-28T02:56:21.282Z,53.40
2018-09-28T02:58:48.946Z,53.84
2018-09-28T03:01:16.536Z,53.82
2018-09-28T03:03:44.188Z,52.89
2018-09-28T03:06:10.909Z,53.57
2018-09-28T03:08:37.572Z,53.59
2018-09-28T03:11:04.200Z,52.96
2018-09-28T03:13:30.848Z,53.51
2018-09-28T03:15:58.585Z,53.18
2018-09-28T03:18:25.227Z,53.03
2018-09-28T03:20:51.866Z,53.03
2018-09-28T03:23:18.511Z,53.64
2018-09-28T03:25:45.159Z,52.83
2018-09-28T03:28:11.941Z,53.40
2018-09-28T03:30:38.577Z,52.48
2018-09-28T03:33:06.694Z,53.42
2018-09-28T03:35:33.338Z,52.85
2018-09-28T03:38:00.104Z,53.46
2018-09-28T03:40:28.252Z,53.15
2018-09-28T03:42:55.849Z,53.50
2018-09-28T03:45:23.314Z,52.57
2018-09-28T03:47:50.950Z,52.76
2018-09-28T03:50:18.503Z,52.70
2018-09-28T03:52:45.969Z,52.02
2018-09-28T03:55:13.872Z,52.39
2018-09-28T03:57:41.465Z,52.13
2018-09-28T04:00:10.168Z,52.99
2018-09-28T04:02:38.293Z,52.19
2018-09-28T04:05:06.885Z,53.32
2018-09-28T04:07:35.707Z,52.86
2018-09-28T04:10:02.444Z,53.10
2018-09-28T04:12:29.092Z,52.49
2018-09-28T04:14:55.783Z,51.98
2018-09-28T04:17:23.418Z,51.88
2018-09-28T04:19:51.053Z,52.65
2018-09-28T04:22:18.677Z,52.21
2018-09-28T04:24:45.325Z,52.69
2018-09-28T04:27:12.997Z,52.14
2018-09-28T04:29:40.436Z,52.04
2018-09-28T04:32:07.905Z,51.76
2018-09-28T04:34:35.266Z,52.71
2018-09-28T04:37:01.904Z,52.08
2018-09-28T04:39:29.509Z,52.55
2018-09-28T04:41:58.378Z,51.85
2018-09-28T04:44:26.070Z,51.84
2018-09-28T04:46:53.661Z,51.70
2018-09-28T04:49:20.296Z,52.63
2018-09-28T04:51:46.956Z,52.55
2018-09-28T04:54:13.594Z,51.81
2018-09-28T04:56:40.228Z,52.55
2018-09-28T04:59:06.897Z,51.83
2018-09-28T05:01:33.590Z,52.83
2018-09-28T05:04:00.249Z,51.99
2018-09-28T05:06:26.897Z,52.31
2018-09-28T05:08:54.449Z,51.97
2018-09-28T05:11:21.082Z,52.07
2018-09-28T05:13:47.745Z,51.96
2018-09-28T05:16:14.389Z,51.23
2018-09-28T05:18:41.025Z,51.89
2018-09-28T05:21:07.655Z,52.19
2018-09-28T05:23:34.309Z,52.00
2018-09-28T05:26:00.992Z,51.27
2018-09-28T05:28:28.292Z,51.45
2018-09-28T05:30:55.015Z,51.63
2018-09-28T05:33:22.745Z,50.69
2018-09-28T05:35:50.250Z,50.73
2018-09-28T05:38:17.712Z,50.21
2018-09-28T05:40:45.372Z,50.28
2018-09-28T05:43:12.930Z,50.59
2018-09-28T05:45:40.557Z,50.95
2018-09-28T05:48:08.182Z,50.92
2018-09-28T05:50:37.112Z,50.46
2018-09-28T05:53:05.713Z,51.41
2018-09-28T05:55:33.367Z,51.52
2018-09-28T05:58:06.808Z,50.49
2018-09-28T06:00:39.221Z,51.72
2018-09-28T06:03:10.470Z,51.62
2018-09-28T06:05:41.099Z,51.81
2018-09-28T06:08:08.809Z,51.85
2018-09-28T06:10:36.184Z,52.44
2018-09-28T06:13:03.681Z,53.28
2018-09-28T06:15:31.355Z,52.40
2018-09-28T06:17:58.842Z,53.07
2018-09-28T06:20:26.330Z,52.74
2018-09-28T06:22:54.081Z,52.76
2018-09-28T06:25:21.608Z,52.14
2018-09-28T06:27:49.540Z,51.71
2018-09-28T06:30:17.144Z,52.14
2018-09-28T06:32:44.730Z,53.53
2018-09-28T06:35:12.380Z,53.23
2018-09-28T06:37:39.040Z,53.43
2018-09-28T06:40:06.676Z,53.31
2018-09-28T06:42:33.416Z,53.09
2018-09-28T06:45:00.077Z,53.55
2018-09-28T06:47:27.794Z,53.19
2018-09-28T06:49:54.470Z,53.55
2018-09-28T06:52:21.146Z,52.41
2018-09-28T06:54:47.801Z,52.91
2018-09-28T06:57:14.453Z,52.91
2018-09-28T06:59:41.109Z,53.83
2018-09-28T07:02:07.772Z,52.70
2018-09-28T07:04:35.968Z,52.77
2018-09-28T07:07:03.644Z,53.56
2018-09-28T07:09:30.418Z,53.72
2018-09-28T07:11:57.880Z,53.13
2018-09-28T07:14:24.508Z,54.26
2018-09-28T07:16:51.291Z,53.40
2018-09-28T07:19:17.878Z,54.22
2018-09-28T07:21:46.132Z,53.94
2018-09-28T07:24:12.885Z,53.31
2018-09-28T07:26:39.555Z,53.58
2018-09-28T07:29:07.898Z,54.32
2018-09-28T07:31:36.360Z,54.75
2018-09-28T07:34:03.064Z,53.68
2018-09-28T07:36:29.861Z,54.39
2018-09-28T07:38:56.528Z,54.17
2018-09-28T07:41:23.828Z,54.16
2018-09-28T07:43:51.397Z,53.96
2018-09-28T07:46:19.066Z,54.35
2018-09-28T07:48:46.648Z,54.57
2018-09-28T07:51:13.341Z,54.33
2018-09-28T07:53:39.980Z,54.82
2018-09-28T07:56:07.574Z,54.13
2018-09-28T07:58:36.562Z,54.94
2018-09-28T08:01:04.044Z,54.97
2018-09-28T08:03:31.684Z,54.29
2018-09-28T08:06:00.091Z,54.88
2018-09-28T08:08:28.361Z,55.23
2018-09-28T08:10:55.988Z,54.48
2018-09-28T08:13:22.684Z,54.26
2018-09-28T08:15:50.308Z,54.28
2018-09-28T08:18:18.253Z,54.13
2018-09-28T08:20:45.832Z,54.26
2018-09-28T08:23:13.499Z,53.36
2018-09-28T08:25:41.006Z,53.09
2018-09-28T08:28:07.746Z,53.57
2018-09-28T08:30:35.767Z,53.63
2018-09-28T08:33:02.416Z,53.47
2018-09-28T08:35:30.220Z,53.79
2018-09-28T08:37:58.429Z,53.81
2018-09-28T08:40:25.892Z,53.22
2018-09-28T08:42:53.572Z,53.63
2018-09-28T08:45:21.243Z,54.53
2018-09-28T08:47:48.906Z,54.52
2018-09-28T08:50:16.557Z,54.76
2018-09-28T08:52:44.004Z,54.85
2018-09-28T08:55:11.677Z,54.19
2018-09-28T08:57:39.236Z,53.69
2018-09-28T09:00:06.757Z,54.63
2018-09-28T09:02:34.469Z,54.78
2018-09-28T09:05:02.201Z,54.59
2018-09-28T09:07:29.693Z,54.61
2018-09-28T09:09:58.204Z,54.79
2018-09-28T09:12:25.214Z,54.61
2018-09-28T09:14:52.677Z,54.26
2018-09-28T09:17:20.225Z,53.50
2018-09-28T09:19:47.793Z,54.43
2018-09-28T09:22:15.446Z,54.59
2018-09-28T09:24:42.902Z,54.49
2018-09-28T09:27:10.563Z,54.26
2018-09-28T09:29:38.280Z,53.47
2018-09-28T09:32:07.213Z,53.92
2018-09-28T09:34:35.893Z,54.41
2018-09-28T09:37:03.502Z,54.25
2018-09-28T09:39:31.158Z,54.35
2018-09-28T09:41:58.591Z,53.96
2018-09-28T09:44:26.142Z,53.65
2018-09-28T09:46:53.803Z,53.48
2018-09-28T09:49:21.500Z,54.26
2018-09-28T09:51:49.245Z,54.13
2018-09-28T09:54:16.861Z,54.13
2018-09-28T09:56:44.485Z,53.96
2018-09-28T09:59:12.113Z,53.42
2018-09-28T10:01:45.399Z,53.93
2018-09-28T10:04:12.471Z,53.45
2018-09-28T10:06:40.118Z,53.24
2018-09-28T10:09:08.073Z,53.22
2018-09-28T10:11:36.804Z,53.57
2018-09-28T10:14:05.485Z,52.49
2018-09-28T10:16:33.113Z,53.98
2018-09-28T10:19:00.684Z,53.36
2018-09-28T10:21:29.808Z,53.07
2018-09-28T10:23:58.692Z,54.04
2018-09-28T10:26:26.622Z,53.73
2018-09-28T10:28:54.933Z,53.58
2018-09-28T10:31:22.548Z,52.29
2018-09-28T10:33:49.197Z,54.14
2018-09-28T10:36:16.747Z,53.77
2018-09-28T10:38:43.392Z,53.98
2018-09-28T10:41:10.097Z,53.70
2018-09-28T10:43:36.837Z,53.82
2018-09-28T10:46:06.612Z,53.11
2018-09-28T10:48:34.172Z,53.23
2018-09-28T10:51:02.190Z,53.76
2018-09-28T10:53:28.856Z,53.95
2018-09-28T10:55:56.518Z,53.67
2018-09-28T10:58:24.126Z,53.75
2018-09-28T11:00:51.528Z,53.52
2018-09-28T11:03:19.349Z,53.33
2018-09-28T11:05:46.857Z,52.89
2018-09-28T11:08:13.548Z,53.24
2018-09-28T11:10:41.177Z,53.11
2018-09-28T11:13:08.712Z,52.85
2018-09-28T11:15:37.866Z,52.51
2018-09-28T11:23:32.529Z,51.99
2018-09-28T11:26:00.183Z,53.15
2018-09-28T11:28:27.880Z,51.77
2018-09-28T11:30:55.338Z,52.43
2018-09-28T11:33:23.052Z,53.32
2018-09-28T11:35:49.789Z,52.74
2018-09-28T11:38:16.436Z,52.53
2018-09-28T11:40:43.131Z,52.88
2018-09-28T11:43:09.849Z,53.43
2018-09-28T11:45:36.502Z,53.37
2018-09-28T11:48:03.156Z,53.00
2018-09-28T11:50:29.801Z,52.54
2018-09-28T11:52:56.498Z,53.40
2018-09-28T11:55:23.139Z,52.69
2018-09-28T11:57:49.913Z,53.12
2018-09-28T12:00:17.626Z,52.91
2018-09-28T12:02:45.061Z,52.42
2018-09-28T12:05:12.025Z,53.05
2018-09-28T12:07:39.505Z,52.04
2018-09-28T12:10:07.890Z,52.86
2018-09-28T12:12:36.236Z,53.34
2018-09-28T12:15:03.673Z,52.98
2018-09-28T12:17:31.124Z,53.15
2018-09-28T12:19:58.752Z,52.75
2018-09-28T12:22:26.441Z,52.39
2018-09-28T12:24:53.920Z,52.41
2018-09-28T12:27:21.691Z,52.71
2018-09-28T12:29:49.190Z,52.71
2018-09-28T12:32:16.806Z,53.44
2018-09-28T12:34:44.366Z,53.32
2018-09-28T12:37:11.908Z,53.61
2018-09-28T12:39:39.627Z,53.50
2018-09-28T12:42:08.079Z,53.07
2018-09-28T12:44:36.844Z,52.85
2018-09-28T12:47:04.397Z,52.66
2018-09-28T12:49:31.047Z,53.64
2018-09-28T12:51:58.637Z,53.77
2018-09-28T12:54:25.422Z,53.62
2018-09-28T12:56:53.060Z,52.83
2018-09-28T12:59:20.641Z,52.83
2018-09-28T13:01:48.190Z,53.14
2018-09-28T13:04:17.102Z,52.75
2018-09-28T13:06:44.033Z,53.69
2018-09-28T13:09:11.709Z,53.64
2018-09-28T13:11:38.852Z,53.54
2018-09-28T13:14:06.463Z,53.32
2018-09-28T13:16:34.069Z,52.96
2018-09-28T13:19:01.644Z,53.60
2018-09-28T13:21:29.296Z,53.55
2018-09-28T13:23:57.962Z,52.89
2018-09-28T13:26:24.710Z,52.83
2018-09-28T13:28:52.336Z,53.67
2018-09-28T13:31:19.891Z,53.55
2018-09-28T13:33:47.581Z,53.11
2018-09-28T13:36:14.265Z,53.32
2018-09-28T13:38:41.104Z,52.58
2018-09-28T13:41:07.665Z,52.83
2018-09-28T13:43:34.301Z,53.31
2018-09-28T13:46:01.011Z,53.29
2018-09-28T13:48:29.009Z,52.56
2018-09-28T13:50:55.847Z,52.68
2018-09-28T13:53:23.365Z,53.35
2018-09-28T13:55:50.892Z,51.97
2018-09-28T13:58:17.673Z,52.48
2018-09-28T14:00:45.320Z,53.17
2018-09-28T14:03:13.025Z,52.83
2018-09-28T14:05:40.570Z,52.95
2018-09-28T14:08:08.166Z,52.27
2018-09-28T14:10:36.491Z,52.11
2018-09-28T14:13:04.277Z,53.00
2018-09-28T14:15:30.913Z,52.16
2018-09-28T14:18:00.017Z,52.89
2018-09-28T14:20:28.778Z,53.23
2018-09-28T14:22:56.417Z,52.84
2018-09-28T14:25:24.200Z,52.20
2018-09-28T14:27:50.861Z,53.46
2018-09-28T14:30:18.477Z,51.91
2018-09-28T14:32:46.208Z,52.57
2018-09-28T14:35:12.897Z,52.15
2018-09-28T14:37:40.368Z,52.92
2018-09-28T14:40:08.052Z,52.74
2018-09-28T14:42:36.692Z,52.44
2018-09-28T14:45:04.281Z,52.51
2018-09-28T14:47:30.932Z,52.92
2018-09-28T14:49:58.744Z,52.44
2018-09-28T14:52:26.473Z,52.82
2018-09-28T14:54:54.044Z,53.03
2018-09-28T14:57:21.569Z,52.83
2018-09-28T14:59:49.116Z,52.98
2018-09-28T15:02:15.830Z,52.06
2018-09-28T15:04:43.522Z,52.91
2018-09-28T15:07:10.145Z,52.86
2018-09-28T15:09:37.729Z,51.98
2018-09-28T15:12:04.397Z,52.69
2018-09-28T15:14:32.084Z,52.89
2018-09-28T15:16:58.744Z,52.41
2018-09-28T15:19:25.408Z,51.92
2018-09-28T15:21:52.049Z,51.71
2018-09-28T15:24:19.537Z,51.85
2018-09-28T15:26:47.284Z,51.91
2018-09-28T15:29:14.784Z,52.55
2018-09-28T15:31:42.325Z,52.08
2018-09-28T15:34:09.921Z,52.00
2018-09-28T15:36:36.569Z,51.21
2018-09-28T15:39:04.329Z,51.77
2018-09-28T15:41:31.876Z,51.66
2018-09-28T15:44:00.796Z,50.87
2018-09-28T15:46:29.807Z,51.78
2018-09-28T15:48:57.369Z,51.12
2018-09-28T15:51:24.917Z,51.49
2018-09-28T15:53:51.617Z,51.30
2018-09-28T15:56:19.100Z,51.85
2018-09-28T15:58:46.784Z,52.25
2018-09-28T16:01:14.321Z,52.47
2018-09-28T16:03:41.844Z,51.34
2018-09-28T16:06:09.485Z,52.31
2018-09-28T16:08:38.068Z,50.87
2018-09-28T16:11:05.918Z,51.26
2018-09-28T16:13:32.588Z,51.73
2018-09-28T16:16:00.090Z,51.92
2018-09-28T16:18:28.691Z,52.05
2018-09-28T16:20:56.340Z,51.23
2018-09-28T16:23:23.929Z,52.33
2018-09-28T16:25:51.631Z,50.33
2018-09-28T16:28:19.201Z,49.29
2018-09-28T16:30:46.786Z,50.53
2018-09-28T16:33:13.420Z,51.28
2018-09-28T16:35:40.988Z,51.11
2018-09-28T16:38:08.397Z,50.88
2018-09-28T16:40:36.912Z,50.53
2018-09-28T16:43:05.508Z,50.71
2018-09-28T16:45:33.242Z,49.63
2018-09-28T16:48:00.804Z,50.55
2018-09-28T16:50:28.700Z,50.80
2018-09-28T16:52:56.221Z,50.92
2018-09-28T16:55:23.993Z,51.17
2018-09-28T16:57:51.536Z,50.30
2018-09-28T17:00:19.004Z,51.31
2018-09-28T17:02:45.659Z,50.16
2018-09-28T17:05:13.320Z,51.02
2018-09-28T17:07:40.012Z,50.60
2018-09-28T17:10:07.553Z,50.88
2018-09-28T17:12:34.252Z,51.17
2018-09-28T17:15:01.729Z,51.14
2018-09-28T17:17:28.400Z,50.16
2018-09-28T17:19:55.079Z,49.82
2018-09-28T17:22:21.844Z,49.71
2018-09-28T17:24:48.485Z,50.57
2018-09-28T17:27:15.300Z,50.88
2018-09-28T17:29:41.937Z,50.04
2018-09-28T17:32:09.441Z,49.84
2018-09-28T17:34:37.118Z,50.41
2018-09-28T17:37:05.810Z,51.23
2018-09-28T17:39:32.469Z,51.15
2018-09-28T17:42:00.025Z,50.47
2018-09-28T17:44:26.660Z,50.37
2018-09-28T17:46:53.310Z,49.76
2018-09-28T17:49:19.956Z,49.39
2018-09-28T17:51:46.591Z,50.58
2018-09-28T17:54:13.291Z,49.13
2018-09-28T17:56:39.944Z,50.11
2018-09-28T17:59:07.388Z,49.27
2018-09-28T18:01:34.037Z,49.15
2018-09-28T18:04:00.744Z,49.07
2018-09-28T18:06:28.300Z,49.40
2018-09-28T18:08:54.937Z,49.77
2018-09-28T18:11:21.689Z,49.49
2018-09-28T18:13:48.333Z,48.28
2018-09-28T18:16:14.984Z,48.51
2018-09-28T18:18:41.674Z,48.13
2018-09-28T18:21:09.289Z,47.97
2018-09-28T18:23:37.052Z,48.49
2018-09-28T18:26:05.261Z,48.91
2018-09-28T18:28:31.920Z,49.75
2018-09-28T18:30:59.404Z,48.41
2018-09-28T18:33:26.773Z,48.03
2018-09-28T18:35:53.412Z,48.08
2018-09-28T18:38:20.071Z,47.56
2018-09-28T18:40:46.770Z,48.78
2018-09-28T18:43:14.293Z,48.53
2018-09-28T18:45:41.856Z,48.76
2018-09-28T18:48:08.498Z,49.29
2018-09-28T18:50:35.859Z,48.56
2018-09-28T18:53:02.507Z,49.24
2018-09-28T18:55:29.181Z,48.00
2018-09-28T18:57:55.976Z,49.14
2018-09-28T19:00:22.770Z,48.28
2018-09-28T19:02:50.432Z,48.26
2018-09-28T19:05:17.284Z,48.75
2018-09-28T19:07:43.988Z,48.96
2018-09-28T19:10:10.678Z,48.83
2018-09-28T19:12:37.400Z,49.01
2018-09-28T19:15:04.369Z,49.21
2018-09-28T19:17:31.021Z,48.58
2018-09-28T19:19:58.522Z,48.83
2018-09-28T19:22:25.164Z,49.00
2018-09-28T19:24:51.846Z,49.40
2018-09-28T19:27:18.515Z,48.86
2018-09-28T19:29:45.188Z,48.81
2018-09-28T19:32:11.838Z,48.44
2018-09-28T19:34:39.410Z,48.96
2018-09-28T19:37:07.007Z,49.19
2018-09-28T19:39:35.596Z,49.15
2018-09-28T19:42:03.180Z,48.85
2018-09-28T19:44:29.824Z,48.78
2018-09-28T19:46:56.482Z,49.66
2018-09-28T19:49:23.188Z,49.75
2018-09-28T19:51:49.920Z,49.13
2018-09-28T19:54:16.559Z,49.79
2018-09-28T19:56:43.208Z,49.47
2018-09-28T19:59:10.669Z,48.35
2018-09-28T20:01:37.550Z,48.96
2018-09-28T20:04:04.241Z,49.21
2018-09-28T20:06:31.901Z,48.44
2018-09-28T20:08:59.260Z,48.94
2018-09-28T20:11:26.843Z,49.19
2018-09-28T20:13:53.537Z,49.36
2018-09-28T20:16:20.220Z,49.29
2018-09-28T20:18:47.126Z,48.51
2018-09-28T20:21:13.837Z,49.25
2018-09-28T20:23:40.512Z,49.16
2018-09-28T20:26:07.250Z,49.00
2018-09-28T20:28:33.993Z,49.54
2018-09-28T20:31:00.680Z,48.87
2018-09-28T20:33:28.612Z,48.40
2018-09-28T20:35:55.332Z,48.63
2018-09-28T20:38:23.037Z,49.10
2018-09-28T20:40:49.740Z,49.47
2018-09-28T20:43:16.414Z,49.29
2018-09-28T20:45:43.112Z,49.82
2018-09-28T20:48:09.794Z,48.85
2018-09-28T20:50:36.466Z,48.27
2018-09-28T20:53:04.032Z,48.98
2018-09-28T20:55:31.699Z,49.42
2018-09-28T20:57:59.227Z,48.67
2018-09-28T21:00:26.750Z,48.52
2018-09-28T21:02:54.361Z,49.13
2018-09-28T21:05:21.837Z,48.69
2018-09-28T21:07:49.493Z,49.71
2018-09-28T21:10:16.274Z,47.97
2018-09-28T21:12:43.035Z,48.63
2018-09-28T21:15:09.742Z,48.76
2018-09-28T21:17:37.244Z,48.96
2018-09-28T21:20:06.241Z,48.94
2018-09-28T21:22:33.881Z,48.84
2018-09-28T21:25:00.799Z,47.97
2018-09-28T21:27:29.000Z,48.74
2018-09-28T21:29:56.801Z,48.65
2018-09-28T21:32:23.479Z,48.31
2018-09-28T21:34:51.104Z,48.11
2018-09-28T21:37:18.707Z,48.06
2018-09-28T21:39:46.344Z,47.80
2018-09-28T21:42:13.946Z,47.98
2018-09-28T21:44:40.609Z,48.60
2018-09-28T21:47:08.260Z,48.47
2018-09-28T21:49:36.996Z,48.57
2018-09-28T21:52:03.664Z,48.00
2018-09-28T21:54:31.181Z,48.69
2018-09-28T21:56:59.293Z,48.57
2018-09-28T21:59:26.761Z,47.77
2018-09-28T22:06:47.718Z,48.57
2018-09-28T22:09:14.449Z,48.70
2018-09-28T22:11:41.996Z,48.21
2018-09-28T22:14:08.807Z,48.38
2018-09-28T22:16:37.801Z,48.66
2018-09-28T22:19:04.485Z,48.41
2018-09-28T22:21:31.158Z,47.84
2018-09-28T22:23:58.675Z,48.65
2018-09-28T22:26:26.176Z,47.80
2018-09-28T22:28:53.790Z,48.42
2018-09-28T22:31:21.453Z,47.70
2018-09-28T22:33:49.004Z,47.80
2018-09-28T22:36:15.858Z,47.86
2018-09-28T22:38:42.569Z,47.94
2018-09-28T22:41:09.781Z,48.41
2018-09-28T22:43:37.312Z,48.39
2018-09-28T22:46:04.121Z,47.60
2018-09-28T22:48:30.790Z,47.67
2018-09-28T22:50:57.562Z,48.49
2018-09-28T22:53:24.225Z,47.74
2018-09-28T22:55:50.870Z,48.56
2018-09-28T22:58:18.881Z,47.84
2018-09-28T23:00:45.594Z,48.00
2018-09-28T23:03:12.347Z,48.63
2018-09-28T23:05:39.054Z,48.26
2018-09-28T23:08:07.972Z,47.42
2018-09-28T23:10:36.030Z,48.10
2018-09-28T23:13:02.724Z,48.32
2018-09-28T23:15:29.378Z,48.36
2018-09-28T23:17:56.089Z,48.73
2018-09-28T23:20:22.864Z,48.45
2018-09-28T23:22:49.657Z,48.70
2018-09-28T23:25:16.337Z,47.88
2018-09-28T23:27:43.001Z,48.33
2018-09-28T23:30:09.666Z,47.61
2018-09-28T23:32:37.400Z,47.88
2018-09-28T23:35:04.073Z,48.31
2018-09-28T23:37:30.768Z,47.52
2018-09-28T23:39:58.609Z,48.25
2018-09-28T23:42:25.329Z,47.63
2018-09-28T23:44:52.091Z,47.49
2018-09-28T23:47:19.784Z,47.83
2018-09-28T23:49:47.373Z,48.21
2018-09-28T23:52:14.401Z,47.76
2018-09-28T23:54:42.078Z,47.91
2018-09-28T23:57:09.677Z,48.26
2018-09-28T23:59:37.367Z,48.15
